sensor_id;sensor_type;location;lat;lon;timestamp;pressure;altitude;pressure_sealevel;temperature;humidity
77366;BME280;66430;50.182;11.704;2023-08-12T00:00:41;95187.94;;;22.72;34.12
77366;BME280;66430;50.182;11.704;2023-08-12T00:03:06;95182.75;;;23.06;33.84
77366;BME280;66430;50.182;11.704;2023-08-12T00:05:32;95181.84;;;23.06;33.70
77366;BME280;66430;50.182;11.704;2023-08-12T00:07:57;95178.81;;;22.79;34.19
77366;BME280;66430;50.182;11.704;2023-08-12T00:10:22;95181.02;;;22.78;33.69
77366;BME280;66430;50.182;11.704;2023-08-12T00:12:47;95181.34;;;22.93;33.91
77366;BME280;66430;50.182;11.704;2023-08-12T00:15:13;95179.12;;;22.72;33.90
77366;BME280;66430;50.182;11.704;2023-08-12T00:17:38;95174.80;;;23.09;33.71
77366;BME280;66430;50.182;11.704;2023-08-12T00:20:04;95175.71;;;23.05;33.65
77366;BME280;66430;50.182;11.704;2023-08-12T00:22:29;95174.61;;;22.62;33.92
77366;BME280;66430;50.182;11.704;2023-08-12T00:24:54;95176.85;;;22.71;33.82
77366;BME280;66430;50.182;11.704;2023-08-12T00:27:19;95178.70;;;22.50;33.77
77366;BME280;66430;50.182;11.704;2023-08-12T00:29:44;95174.21;;;22.93;34.04
77366;BME280;66430;50.182;11.704;2023-08-12T00:32:10;95176.62;;;22.94;33.91
77366;BME280;66430;50.182;11.704;2023-08-12T00:34:35;95174.05;;;22.85;34.04
77366;BME280;66430;50.182;11.704;2023-08-12T00:37:00;95168.97;;;22.38;33.86
77366;BME280;66430;50.182;11.704;2023-08-12T00:39:26;95165.77;;;22.92;33.88
77366;BME280;66430;50.182;11.704;2023-08-12T00:41:51;95166.36;;;22.89;34.06
77366;BME280;66430;50.182;11.704;2023-08-12T00:44:16;95165.59;;;22.51;34.06
77366;BME280;66430;50.182;11.704;2023-08-12T00:46:43;95166.11;;;22.78;33.94
77366;BME280;66430;50.182;11.704;2023-08-12T00:49:08;95166.23;;;22.64;34.18
77366;BME280;66430;50.182;11.704;2023-08-12T00:51:33;95163.71;;;22.61;33.92
77366;BME280;66430;50.182;11.704;2023-08-12T00:53:58;95161.88;;;22.80;33.78
77366;BME280;66430;50.182;11.704;2023-08-12T00:56:23;95158.32;;;22.78;33.89
77366;BME280;66430;50.182;11.704;2023-08-12T00:58:48;95155.70;;;22.65;34.10
77366;BME280;66430;50.182;11.704;2023-08-12T01:01:14;95153.10;;;22.74;33.88
77366;BME280;66430;50.182;11.704;2023-08-12T01:03:39;95150.59;;;22.68;33.87
77366;BME280;66430;50.182;11.704;2023-08-12T01:06:04;95145.75;;;22.72;33.85
77366;BME280;66430;50.182;11.704;2023-08-12T01:08:31;95145.71;;;22.64;33.85
77366;BME280;66430;50.182;11.704;2023-08-12T01:11:01;95147.52;;;22.70;33.70
77366;BME280;66430;50.182;11.704;2023-08-12T01:13:27;95147.32;;;22.88;33.85
77366;BME280;66430;50.182;11.704;2023-08-12T01:15:47;95146.53;;;22.62;33.85
77366;BME280;66430;50.182;11.704;2023-08-12T01:18:11;95147.67;;;23.05;33.94
77366;BME280;66430;50.182;11.704;2023-08-12T01:20:36;95142.99;;;22.88;33.79
77366;BME280;66430;50.182;11.704;2023-08-12T01:23:08;95138.00;;;22.65;33.57
77366;BME280;66430;50.182;11.704;2023-08-12T01:25:27;95136.45;;;22.63;33.80
77366;BME280;66430;50.182;11.704;2023-08-12T01:27:52;95131.84;;;22.62;33.84
77366;BME280;66430;50.182;11.704;2023-08-12T01:30:19;95126.72;;;22.78;33.87
77366;BME280;66430;50.182;11.704;2023-08-12T01:32:48;95128.36;;;22.78;33.79
77366;BME280;66430;50.182;11.704;2023-08-12T01:35:14;95125.86;;;22.50;33.90
77366;BME280;66430;50.182;11.704;2023-08-12T01:37:34;95125.97;;;22.75;33.88
77366;BME280;66430;50.182;11.704;2023-08-12T01:40:01;95123.28;;;22.49;33.91
77366;BME280;66430;50.182;11.704;2023-08-12T01:42:24;95123.78;;;22.55;33.76
77366;BME280;66430;50.182;11.704;2023-08-12T01:44:50;95119.24;;;22.68;33.92
77366;BME280;66430;50.182;11.704;2023-08-12T01:47:14;95117.06;;;22.40;33.99
77366;BME280;66430;50.182;11.704;2023-08-12T01:49:40;95114.17;;;22.40;34.13
77366;BME280;66430;50.182;11.704;2023-08-12T01:52:05;95110.70;;;22.30;34.17
77366;BME280;66430;50.182;11.704;2023-08-12T01:54:30;95109.50;;;22.37;34.03
77366;BME280;66430;50.182;11.704;2023-08-12T01:56:56;95108.29;;;22.58;34.02
77366;BME280;66430;50.182;11.704;2023-08-12T01:59:21;95105.98;;;22.33;33.98
77366;BME280;66430;50.182;11.704;2023-08-12T02:01:46;95103.83;;;22.25;34.10
77366;BME280;66430;50.182;11.704;2023-08-12T02:04:11;95102.22;;;22.78;33.96
77366;BME280;66430;50.182;11.704;2023-08-12T02:06:37;95101.65;;;22.01;33.93
77366;BME280;66430;50.182;11.704;2023-08-12T02:09:04;95099.91;;;22.33;33.65
77366;BME280;66430;50.182;11.704;2023-08-12T02:11:28;95100.37;;;22.49;33.77
77366;BME280;66430;50.182;11.704;2023-08-12T02:13:53;95102.79;;;22.48;33.97
77366;BME280;66430;50.182;11.704;2023-08-12T02:16:18;95101.72;;;22.24;33.95
77366;BME280;66430;50.182;11.704;2023-08-12T02:18:44;95098.13;;;22.47;33.69
77366;BME280;66430;50.182;11.704;2023-08-12T02:21:09;95095.68;;;22.28;33.63
77366;BME280;66430;50.182;11.704;2023-08-12T02:23:34;95097.61;;;22.47;33.92
77366;BME280;66430;50.182;11.704;2023-08-12T02:26:00;95095.33;;;22.26;33.93
77366;BME280;66430;50.182;11.704;2023-08-12T02:28:25;95090.76;;;22.27;33.73
77366;BME280;66430;50.182;11.704;2023-08-12T02:30:50;95088.89;;;22.47;33.71
77366;BME280;66430;50.182;11.704;2023-08-12T02:33:15;95085.51;;;22.25;33.74
77366;BME280;66430;50.182;11.704;2023-08-12T02:35:42;95085.75;;;22.25;33.82
77366;BME280;66430;50.182;11.704;2023-08-12T02:38:06;95082.16;;;22.47;33.89
77366;BME280;66430;50.182;11.704;2023-08-12T02:40:31;95079.10;;;22.45;33.82
77366;BME280;66430;50.182;11.704;2023-08-12T02:42:56;95075.25;;;22.37;33.89
77366;BME280;66430;50.182;11.704;2023-08-12T02:45:22;95068.86;;;22.70;33.73
77366;BME280;66430;50.182;11.704;2023-08-12T02:47:47;95065.13;;;22.24;33.72
77366;BME280;66430;50.182;11.704;2023-08-12T02:50:12;95056.86;;;22.55;33.64
77366;BME280;66430;50.182;11.704;2023-08-12T02:52:37;95052.40;;;22.50;33.58
77366;BME280;66430;50.182;11.704;2023-08-12T02:55:03;95050.70;;;22.31;33.52
77366;BME280;66430;50.182;11.704;2023-08-12T02:57:28;95049.55;;;22.54;33.53
77366;BME280;66430;50.182;11.704;2023-08-12T02:59:53;95048.12;;;22.55;33.50
77366;BME280;66430;50.182;11.704;2023-08-12T03:02:18;95046.21;;;22.41;33.72
77366;BME280;66430;50.182;11.704;2023-08-12T03:04:44;95045.79;;;22.73;33.69
77366;BME280;66430;50.182;11.704;2023-08-12T03:07:09;95051.02;;;22.26;33.63
77366;BME280;66430;50.182;11.704;2023-08-12T03:09:35;95052.96;;;22.62;34.01
77366;BME280;66430;50.182;11.704;2023-08-12T03:12:00;95048.71;;;22.69;33.93
77366;BME280;66430;50.182;11.704;2023-08-12T03:14:28;95045.05;;;22.44;33.83
77366;BME280;66430;50.182;11.704;2023-08-12T03:16:51;95041.65;;;22.62;33.89
77366;BME280;66430;50.182;11.704;2023-08-12T03:19:16;95039.96;;;22.13;34.01
77366;BME280;66430;50.182;11.704;2023-08-12T03:21:41;95041.22;;;22.56;34.18
77366;BME280;66430;50.182;11.704;2023-08-12T03:24:07;95040.68;;;22.39;33.90
77366;BME280;66430;50.182;11.704;2023-08-12T03:26:32;95045.60;;;22.11;34.50
77366;BME280;66430;50.182;11.704;2023-08-12T03:28:58;95049.05;;;21.73;34.76
77366;BME280;66430;50.182;11.704;2023-08-12T03:31:23;95050.54;;;21.70;34.99
77366;BME280;66430;50.182;11.704;2023-08-12T03:33:48;95053.74;;;22.04;34.44
77366;BME280;66430;50.182;11.704;2023-08-12T03:36:13;95051.67;;;21.78;34.30
77366;BME280;66430;50.182;11.704;2023-08-12T03:38:39;95051.71;;;22.08;34.22
77366;BME280;66430;50.182;11.704;2023-08-12T03:41:05;95048.61;;;21.88;34.51
77366;BME280;66430;50.182;11.704;2023-08-12T03:43:29;95044.48;;;21.65;34.96
77366;BME280;66430;50.182;11.704;2023-08-12T03:45:55;95040.61;;;21.92;34.42
77366;BME280;66430;50.182;11.704;2023-08-12T03:48:20;95041.31;;;21.82;34.69
77366;BME280;66430;50.182;11.704;2023-08-12T03:50:46;95042.23;;;21.98;34.30
77366;BME280;66430;50.182;11.704;2023-08-12T03:53:11;95043.60;;;21.87;34.55
77366;BME280;66430;50.182;11.704;2023-08-12T03:55:36;95041.35;;;22.02;34.19
77366;BME280;66430;50.182;11.704;2023-08-12T03:58:02;95042.45;;;22.00;34.24
77366;BME280;66430;50.182;11.704;2023-08-12T04:00:27;95036.22;;;22.04;34.07
77366;BME280;66430;50.182;11.704;2023-08-12T04:02:52;95034.43;;;22.23;34.07
77366;BME280;66430;50.182;11.704;2023-08-12T04:05:18;95032.31;;;21.98;34.19
77366;BME280;66430;50.182;11.704;2023-08-12T04:07:43;95035.23;;;21.77;34.16
77366;BME280;66430;50.182;11.704;2023-08-12T04:10:09;95039.36;;;22.06;34.16
77366;BME280;66430;50.182;11.704;2023-08-12T04:12:33;95037.61;;;22.34;34.15
77366;BME280;66430;50.182;11.704;2023-08-12T04:14:59;95040.78;;;21.94;34.06
77366;BME280;66430;50.182;11.704;2023-08-12T04:17:24;95042.23;;;22.47;34.12
77366;BME280;66430;50.182;11.704;2023-08-12T04:19:50;95040.74;;;22.13;33.83
77366;BME280;66430;50.182;11.704;2023-08-12T04:22:15;95036.21;;;22.44;33.89
77366;BME280;66430;50.182;11.704;2023-08-12T04:24:40;95040.53;;;22.06;34.61
77366;BME280;66430;50.182;11.704;2023-08-12T04:27:06;95037.78;;;22.19;34.40
77366;BME280;66430;50.182;11.704;2023-08-12T04:29:31;95041.40;;;22.20;34.89
77366;BME280;66430;50.182;11.704;2023-08-12T04:31:56;95041.72;;;22.70;34.36
77366;BME280;66430;50.182;11.704;2023-08-12T04:34:22;95045.54;;;22.82;34.26
77366;BME280;66430;50.182;11.704;2023-08-12T04:36:47;95052.38;;;22.39;34.56
77366;BME280;66430;50.182;11.704;2023-08-12T04:39:14;95051.52;;;22.53;34.27
77366;BME280;66430;50.182;11.704;2023-08-12T04:41:43;95053.24;;;22.38;34.24
77366;BME280;66430;50.182;11.704;2023-08-12T04:44:04;95046.59;;;22.61;33.83
77366;BME280;66430;50.182;11.704;2023-08-12T04:46:29;95043.77;;;22.97;33.50
77366;BME280;66430;50.182;11.704;2023-08-12T04:48:54;95045.11;;;22.86;33.34
77366;BME280;66430;50.182;11.704;2023-08-12T04:51:19;95047.00;;;23.01;33.94
77366;BME280;66430;50.182;11.704;2023-08-12T04:53:44;95046.54;;;22.62;33.67
77366;BME280;66430;50.182;11.704;2023-08-12T04:56:10;95048.22;;;22.94;33.66
77366;BME280;66430;50.182;11.704;2023-08-12T04:58:35;95048.74;;;23.27;33.84
77366;BME280;66430;50.182;11.704;2023-08-12T05:01:01;95047.83;;;23.33;33.76
77366;BME280;66430;50.182;11.704;2023-08-12T05:03:26;95046.57;;;23.01;34.13
77366;BME280;66430;50.182;11.704;2023-08-12T05:05:51;95041.34;;;23.38;35.07
77366;BME280;66430;50.182;11.704;2023-08-12T05:08:17;95042.91;;;23.79;35.07
77366;BME280;66430;50.182;11.704;2023-08-12T05:10:42;95040.24;;;23.74;34.98
77366;BME280;66430;50.182;11.704;2023-08-12T05:13:07;95041.96;;;24.03;34.47
77366;BME280;66430;50.182;11.704;2023-08-12T05:15:33;95034.17;;;23.93;33.97
77366;BME280;66430;50.182;11.704;2023-08-12T05:17:58;95037.36;;;24.09;33.06
77366;BME280;66430;50.182;11.704;2023-08-12T05:20:23;95033.67;;;24.40;32.63
77366;BME280;66430;50.182;11.704;2023-08-12T05:22:49;95029.72;;;24.20;32.40
77366;BME280;66430;50.182;11.704;2023-08-12T05:25:14;95030.55;;;24.28;32.51
77366;BME280;66430;50.182;11.704;2023-08-12T05:27:39;95031.92;;;24.47;32.47
77366;BME280;66430;50.182;11.704;2023-08-12T05:30:06;95037.33;;;24.23;32.76
77366;BME280;66430;50.182;11.704;2023-08-12T05:32:30;95037.89;;;24.53;32.00
77366;BME280;66430;50.182;11.704;2023-08-12T05:34:55;95040.28;;;24.46;32.04
77366;BME280;66430;50.182;11.704;2023-08-12T05:37:20;95041.41;;;24.48;32.01
77366;BME280;66430;50.182;11.704;2023-08-12T05:39:46;95040.53;;;24.55;31.95
77366;BME280;66430;50.182;11.704;2023-08-12T05:42:11;95038.26;;;24.37;32.56
77366;BME280;66430;50.182;11.704;2023-08-12T05:44:36;95041.13;;;24.13;32.62
77366;BME280;66430;50.182;11.704;2023-08-12T05:47:02;95037.79;;;24.14;32.17
77366;BME280;66430;50.182;11.704;2023-08-12T05:49:27;95036.85;;;24.44;32.55
77366;BME280;66430;50.182;11.704;2023-08-12T05:51:53;95034.18;;;24.60;32.44
77366;BME280;66430;50.182;11.704;2023-08-12T05:54:18;95030.55;;;24.50;32.28
77366;BME280;66430;50.182;11.704;2023-08-12T05:56:43;95029.27;;;25.06;31.79
77366;BME280;66430;50.182;11.704;2023-08-12T05:59:08;95026.59;;;25.04;31.76
77366;BME280;66430;50.182;11.704;2023-08-12T06:01:34;95021.47;;;25.13;32.03
77366;BME280;66430;50.182;11.704;2023-08-12T06:03:59;95016.25;;;25.32;31.67
77366;BME280;66430;50.182;11.704;2023-08-12T06:06:24;95017.74;;;25.21;32.41
77366;BME280;66430;50.182;11.704;2023-08-12T06:08:50;95016.58;;;25.20;31.78
77366;BME280;66430;50.182;11.704;2023-08-12T06:11:15;95012.11;;;25.53;32.38
77366;BME280;66430;50.182;11.704;2023-08-12T06:13:40;95003.06;;;25.42;31.43
77366;BME280;66430;50.182;11.704;2023-08-12T06:16:06;95001.09;;;25.69;31.54
77366;BME280;66430;50.182;11.704;2023-08-12T06:18:31;94998.78;;;25.91;30.92
77366;BME280;66430;50.182;11.704;2023-08-12T06:20:56;94998.97;;;25.54;31.33
77366;BME280;66430;50.182;11.704;2023-08-12T06:23:22;94997.66;;;25.56;30.87
77366;BME280;66430;50.182;11.704;2023-08-12T06:25:47;94995.16;;;25.45;30.67
77366;BME280;66430;50.182;11.704;2023-08-12T06:28:12;94989.86;;;25.66;30.78
77366;BME280;66430;50.182;11.704;2023-08-12T06:30:37;94986.35;;;26.05;31.11
77366;BME280;66430;50.182;11.704;2023-08-12T06:33:04;94987.03;;;25.81;30.87
77366;BME280;66430;50.182;11.704;2023-08-12T06:35:29;94988.94;;;26.23;31.26
77366;BME280;66430;50.182;11.704;2023-08-12T06:37:54;94993.11;;;25.67;31.60
77366;BME280;66430;50.182;11.704;2023-08-12T06:40:19;94992.74;;;25.96;31.20
77366;BME280;66430;50.182;11.704;2023-08-12T06:42:44;94993.60;;;26.05;31.48
77366;BME280;66430;50.182;11.704;2023-08-12T06:45:11;94994.85;;;26.25;31.34
77366;BME280;66430;50.182;11.704;2023-08-12T06:47:35;94997.75;;;26.15;31.46
77366;BME280;66430;50.182;11.704;2023-08-12T06:50:06;94997.65;;;25.96;31.98
77366;BME280;66430;50.182;11.704;2023-08-12T06:52:25;94996.14;;;26.19;31.78
77366;BME280;66430;50.182;11.704;2023-08-12T06:54:51;94994.84;;;25.77;31.82
77366;BME280;66430;50.182;11.704;2023-08-12T06:57:16;94996.91;;;26.28;31.08
77366;BME280;66430;50.182;11.704;2023-08-12T06:59:41;94998.00;;;26.30;31.24
77366;BME280;66430;50.182;11.704;2023-08-12T07:02:07;94999.03;;;26.26;31.28
77366;BME280;66430;50.182;11.704;2023-08-12T07:04:32;94995.38;;;26.32;31.20
77366;BME280;66430;50.182;11.704;2023-08-12T07:06:57;94993.29;;;26.04;30.59
77366;BME280;66430;50.182;11.704;2023-08-12T07:09:23;94996.26;;;26.50;30.71
77366;BME280;66430;50.182;11.704;2023-08-12T07:11:48;94999.73;;;26.12;30.63
77366;BME280;66430;50.182;11.704;2023-08-12T07:14:13;95000.16;;;25.58;30.98
77366;BME280;66430;50.182;11.704;2023-08-12T07:16:38;95000.02;;;25.96;30.75
77366;BME280;66430;50.182;11.704;2023-08-12T07:19:04;95004.26;;;26.10;30.43
77366;BME280;66430;50.182;11.704;2023-08-12T07:21:34;95007.60;;;25.74;30.65
77366;BME280;66430;50.182;11.704;2023-08-12T07:23:55;95011.05;;;25.74;30.78
77366;BME280;66430;50.182;11.704;2023-08-12T07:26:20;95006.75;;;25.16;31.46
77366;BME280;66430;50.182;11.704;2023-08-12T07:28:45;95010.30;;;25.78;31.25
77366;BME280;66430;50.182;11.704;2023-08-12T07:31:11;95012.77;;;25.45;31.26
77366;BME280;66430;50.182;11.704;2023-08-12T07:33:37;95014.86;;;25.75;31.08
77366;BME280;66430;50.182;11.704;2023-08-12T07:36:02;95016.81;;;25.56;31.51
77366;BME280;66430;50.182;11.704;2023-08-12T07:38:27;95016.37;;;26.03;31.02
77366;BME280;66430;50.182;11.704;2023-08-12T07:40:52;95014.04;;;25.71;30.71
77366;BME280;66430;50.182;11.704;2023-08-12T07:43:18;95012.43;;;25.84;31.34
77366;BME280;66430;50.182;11.704;2023-08-12T07:45:43;95016.32;;;25.84;31.47
77366;BME280;66430;50.182;11.704;2023-08-12T07:48:08;95014.22;;;25.71;31.51
77366;BME280;66430;50.182;11.704;2023-08-12T07:50:33;95014.30;;;26.17;31.45
77366;BME280;66430;50.182;11.704;2023-08-12T07:52:58;95015.61;;;26.25;31.20
77366;BME280;66430;50.182;11.704;2023-08-12T07:55:24;95013.97;;;25.97;30.54
77366;BME280;66430;50.182;11.704;2023-08-12T07:57:49;95014.28;;;26.51;30.96
77366;BME280;66430;50.182;11.704;2023-08-12T08:00:15;95014.96;;;26.08;31.01
77366;BME280;66430;50.182;11.704;2023-08-12T08:02:40;95015.70;;;26.53;30.88
77366;BME280;66430;50.182;11.704;2023-08-12T08:05:06;95012.29;;;26.05;30.67
77366;BME280;66430;50.182;11.704;2023-08-12T08:07:30;95015.76;;;26.19;30.53
77366;BME280;66430;50.182;11.704;2023-08-12T08:09:56;95013.05;;;26.32;30.20
77366;BME280;66430;50.182;11.704;2023-08-12T08:12:21;95012.15;;;26.19;30.65
77366;BME280;66430;50.182;11.704;2023-08-12T08:14:46;95014.80;;;26.39;30.40
77366;BME280;66430;50.182;11.704;2023-08-12T08:17:11;95009.31;;;26.51;30.54
77366;BME280;66430;50.182;11.704;2023-08-12T08:19:37;95010.98;;;26.55;30.05
77366;BME280;66430;50.182;11.704;2023-08-12T08:22:02;95013.36;;;26.59;29.44
77366;BME280;66430;50.182;11.704;2023-08-12T08:24:28;95010.88;;;26.33;29.61
77366;BME280;66430;50.182;11.704;2023-08-12T08:26:53;95014.81;;;26.41;29.65
77366;BME280;66430;50.182;11.704;2023-08-12T08:29:18;95021.49;;;26.69;29.33
77366;BME280;66430;50.182;11.704;2023-08-12T08:31:43;95015.35;;;26.07;30.36
77366;BME280;66430;50.182;11.704;2023-08-12T08:34:09;95010.62;;;26.52;30.06
77366;BME280;66430;50.182;11.704;2023-08-12T08:36:34;95009.00;;;26.55;29.09
77366;BME280;66430;50.182;11.704;2023-08-12T08:38:59;95013.10;;;26.43;28.87
77366;BME280;66430;50.182;11.704;2023-08-12T08:41:24;95014.08;;;26.51;29.91
77366;BME280;66430;50.182;11.704;2023-08-12T08:43:53;95013.99;;;26.83;29.68
77366;BME280;66430;50.182;11.704;2023-08-12T08:46:16;95013.34;;;27.07;30.42
77366;BME280;66430;50.182;11.704;2023-08-12T08:48:41;95009.37;;;27.06;30.14
77366;BME280;66430;50.182;11.704;2023-08-12T08:51:06;95010.05;;;27.21;30.23
77366;BME280;66430;50.182;11.704;2023-08-12T08:53:31;95013.44;;;27.41;28.46
77366;BME280;66430;50.182;11.704;2023-08-12T08:55:56;95013.50;;;27.37;28.74
77366;BME280;66430;50.182;11.704;2023-08-12T08:58:22;95010.83;;;27.29;29.20
77366;BME280;66430;50.182;11.704;2023-08-12T09:00:47;95010.49;;;27.56;28.84
77366;BME280;66430;50.182;11.704;2023-08-12T09:03:13;95011.19;;;27.09;29.31
77366;BME280;66430;50.182;11.704;2023-08-12T09:05:37;95011.79;;;27.39;27.90
77366;BME280;66430;50.182;11.704;2023-08-12T09:08:04;95013.60;;;27.55;28.55
77366;BME280;66430;50.182;11.704;2023-08-12T09:10:28;95012.49;;;27.61;27.83
77366;BME280;66430;50.182;11.704;2023-08-12T09:12:55;95009.39;;;27.44;27.98
77366;BME280;66430;50.182;11.704;2023-08-12T09:15:18;95005.60;;;27.88;28.21
77366;BME280;66430;50.182;11.704;2023-08-12T09:17:44;95005.60;;;27.67;28.11
77366;BME280;66430;50.182;11.704;2023-08-12T09:20:10;95010.87;;;27.86;27.94
77366;BME280;66430;50.182;11.704;2023-08-12T09:22:35;95015.92;;;27.96;27.98
77366;BME280;66430;50.182;11.704;2023-08-12T09:25:00;95011.11;;;27.31;27.97
77366;BME280;66430;50.182;11.704;2023-08-12T09:27:25;95010.98;;;28.12;27.53
77366;BME280;66430;50.182;11.704;2023-08-12T09:29:55;95009.83;;;28.39;27.83
77366;BME280;66430;50.182;11.704;2023-08-12T09:32:19;95008.26;;;28.24;27.17
77366;BME280;66430;50.182;11.704;2023-08-12T09:34:46;95008.64;;;27.86;26.54
77366;BME280;66430;50.182;11.704;2023-08-12T09:37:06;95011.99;;;28.14;27.49
77366;BME280;66430;50.182;11.704;2023-08-12T09:39:31;95011.20;;;28.08;27.89
77366;BME280;66430;50.182;11.704;2023-08-12T09:41:56;95011.67;;;28.43;27.81
77366;BME280;66430;50.182;11.704;2023-08-12T09:44:22;95010.55;;;28.45;28.15
77366;BME280;66430;50.182;11.704;2023-08-12T09:46:47;95009.51;;;28.70;28.52
77366;BME280;66430;50.182;11.704;2023-08-12T09:49:12;95009.19;;;28.69;27.60
77366;BME280;66430;50.182;11.704;2023-08-12T09:51:37;95007.23;;;28.91;27.40
77366;BME280;66430;50.182;11.704;2023-08-12T09:54:03;95007.27;;;29.11;27.66
77366;BME280;66430;50.182;11.704;2023-08-12T09:56:32;95010.03;;;28.71;26.93
77366;BME280;66430;50.182;11.704;2023-08-12T09:58:54;95004.64;;;28.63;28.57
77366;BME280;66430;50.182;11.704;2023-08-12T10:01:19;95004.70;;;28.61;28.32
77366;BME280;66430;50.182;11.704;2023-08-12T10:03:52;95005.92;;;28.87;28.30
77366;BME280;66430;50.182;11.704;2023-08-12T10:06:09;94994.94;;;29.18;27.69
77366;BME280;66430;50.182;11.704;2023-08-12T10:08:35;94998.75;;;29.26;27.66
77366;BME280;66430;50.182;11.704;2023-08-12T10:10:59;94997.45;;;28.90;28.76
77366;BME280;66430;50.182;11.704;2023-08-12T10:13:25;94998.03;;;29.21;28.74
77366;BME280;66430;50.182;11.704;2023-08-12T10:15:50;94999.36;;;29.30;27.88
77366;BME280;66430;50.182;11.704;2023-08-12T10:18:15;95001.61;;;29.16;28.66
77366;BME280;66430;50.182;11.704;2023-08-12T10:20:42;95002.93;;;29.30;28.76
77366;BME280;66430;50.182;11.704;2023-08-12T10:23:06;95006.15;;;29.65;27.86
77366;BME280;66430;50.182;11.704;2023-08-12T10:25:33;95004.39;;;29.18;28.12
77366;BME280;66430;50.182;11.704;2023-08-12T10:27:58;95001.97;;;29.28;27.66
77366;BME280;66430;50.182;11.704;2023-08-12T10:30:22;94999.93;;;29.50;26.52
77366;BME280;66430;50.182;11.704;2023-08-12T10:32:47;94994.16;;;29.66;26.83
77366;BME280;66430;50.182;11.704;2023-08-12T10:35:13;94990.22;;;30.04;27.47
77366;BME280;66430;50.182;11.704;2023-08-12T10:37:48;94989.09;;;29.68;26.78
77366;BME280;66430;50.182;11.704;2023-08-12T10:40:05;94986.26;;;29.73;26.81
77366;BME280;66430;50.182;11.704;2023-08-12T10:42:40;94988.40;;;29.93;26.54
77366;BME280;66430;50.182;11.704;2023-08-12T10:44:58;94987.54;;;30.10;26.57
77366;BME280;66430;50.182;11.704;2023-08-12T10:47:19;94983.27;;;30.13;26.17
77366;BME280;66430;50.182;11.704;2023-08-12T10:49:49;94982.11;;;29.55;26.09
77366;BME280;66430;50.182;11.704;2023-08-12T10:54:35;94976.07;;;30.38;25.97
77366;BME280;66430;50.182;11.704;2023-08-12T10:57:07;94967.51;;;30.36;26.21
77366;BME280;66430;50.182;11.704;2023-08-12T11:01:55;94959.32;;;29.89;26.64
77366;BME280;66430;50.182;11.704;2023-08-12T11:04:18;94957.49;;;29.31;27.57
77366;BME280;66430;50.182;11.704;2023-08-12T11:06:45;94957.91;;;30.27;26.55
77366;BME280;66430;50.182;11.704;2023-08-12T11:09:07;94957.28;;;30.02;26.72
77366;BME280;66430;50.182;11.704;2023-08-12T11:11:34;94952.10;;;29.99;26.35
77366;BME280;66430;50.182;11.704;2023-08-12T11:13:58;94948.02;;;30.29;26.60
77366;BME280;66430;50.182;11.704;2023-08-12T11:16:32;94943.32;;;30.26;26.44
77366;BME280;66430;50.182;11.704;2023-08-12T11:18:49;94941.31;;;29.98;25.95
77366;BME280;66430;50.182;11.704;2023-08-12T11:21:15;94942.12;;;30.25;26.77
77366;BME280;66430;50.182;11.704;2023-08-12T11:23:40;94939.13;;;30.06;26.40
77366;BME280;66430;50.182;11.704;2023-08-12T11:26:05;94937.96;;;30.40;25.81
77366;BME280;66430;50.182;11.704;2023-08-12T11:28:30;94939.79;;;30.54;25.00
77366;BME280;66430;50.182;11.704;2023-08-12T11:30:56;94931.20;;;29.83;25.72
77366;BME280;66430;50.182;11.704;2023-08-12T11:33:21;94929.13;;;29.24;26.69
77366;BME280;66430;50.182;11.704;2023-08-12T11:35:46;94921.61;;;29.89;27.17
77366;BME280;66430;50.182;11.704;2023-08-12T11:38:11;94915.49;;;29.70;27.43
77366;BME280;66430;50.182;11.704;2023-08-12T11:40:37;94913.67;;;30.26;27.02
77366;BME280;66430;50.182;11.704;2023-08-12T11:43:02;94910.40;;;30.58;26.47
77366;BME280;66430;50.182;11.704;2023-08-12T11:45:27;94910.19;;;29.91;26.67
77366;BME280;66430;50.182;11.704;2023-08-12T11:47:54;94909.17;;;30.48;26.75
77366;BME280;66430;50.182;11.704;2023-08-12T11:50:25;94904.63;;;30.02;27.94
77366;BME280;66430;50.182;11.704;2023-08-12T11:52:43;94907.34;;;30.53;26.68
77366;BME280;66430;50.182;11.704;2023-08-12T11:55:09;94902.02;;;30.84;27.04
77366;BME280;66430;50.182;11.704;2023-08-12T11:57:34;94903.20;;;30.70;26.90
77366;BME280;66430;50.182;11.704;2023-08-12T11:59:59;94899.19;;;31.39;26.43
77366;BME280;66430;50.182;11.704;2023-08-12T12:02:24;94892.07;;;30.71;25.83
77366;BME280;66430;50.182;11.704;2023-08-12T12:04:51;94885.42;;;31.40;25.37
77366;BME280;66430;50.182;11.704;2023-08-12T12:07:19;94878.68;;;30.61;27.11
77366;BME280;66430;50.182;11.704;2023-08-12T12:09:43;94876.19;;;30.95;27.69
77366;BME280;66430;50.182;11.704;2023-08-12T12:12:09;94878.55;;;29.97;27.18
77366;BME280;66430;50.182;11.704;2023-08-12T12:14:31;94879.04;;;31.26;26.71
77366;BME280;66430;50.182;11.704;2023-08-12T12:16:56;94881.27;;;31.16;25.97
77366;BME280;66430;50.182;11.704;2023-08-12T12:19:23;94878.11;;;31.06;25.83
77366;BME280;66430;50.182;11.704;2023-08-12T12:21:49;94872.94;;;31.03;26.21
77366;BME280;66430;50.182;11.704;2023-08-12T12:24:12;94873.24;;;31.32;25.85
77366;BME280;66430;50.182;11.704;2023-08-12T12:26:37;94874.90;;;31.14;26.37
77366;BME280;66430;50.182;11.704;2023-08-12T12:29:02;94869.33;;;30.71;26.57
77366;BME280;66430;50.182;11.704;2023-08-12T12:31:28;94863.25;;;30.74;26.47
77366;BME280;66430;50.182;11.704;2023-08-12T12:33:54;94866.07;;;30.66;26.03
77366;BME280;66430;50.182;11.704;2023-08-12T12:36:19;94858.36;;;30.63;27.05
77366;BME280;66430;50.182;11.704;2023-08-12T12:38:44;94853.51;;;30.85;26.76
77366;BME280;66430;50.182;11.704;2023-08-12T12:41:09;94853.04;;;30.82;26.71
77366;BME280;66430;50.182;11.704;2023-08-12T12:43:35;94846.60;;;30.68;27.71